Time;durP1;ratioP1;P1;durP2;ratioP2;P2;SDS_P1;SDS_P2;PMS_P1;PMS_P2;Temp;Humidity;BMP_temperature;BMP_pressure;BME280_temperature;BME280_humidity;BME280_pressure;Samples;Min_cycle;Max_cycle;Signal;HPM_P1;HPM_P2
2023/07/13 00:02:08;;;;;;;8.57;1.85;;;19.20;68.10;;;20.29;48.56;100441.59;4956878;28;20449;-84
2023/07/13 00:04:36;;;;;;;7.03;1.63;;;19.10;68.20;;;20.26;48.33;100431.31;4956313;28;20042;-84
2023/07/13 00:07:03;;;;;;;7.60;2.10;;;19.10;68.30;;;20.22;48.54;100432.97;4964848;28;20079;-84
2023/07/13 00:09:32;;;;;;;5.82;1.90;;;19.00;68.30;;;20.21;48.60;100436.75;4947366;29;20046;-84
2023/07/13 00:11:59;;;;;;;8.20;1.73;;;19.00;68.30;;;20.18;48.76;100443.53;4957011;28;20054;-84
2023/07/13 00:14:29;;;;;;;5.07;1.98;;;19.00;68.30;;;20.14;48.56;100428.91;4966390;28;20049;-84
2023/07/13 00:16:57;;;;;;;6.15;1.90;;;19.00;68.40;;;20.11;48.48;100429.47;4937814;29;20071;-84
2023/07/13 00:19:24;;;;;;;4.88;1.63;;;18.90;68.30;;;20.09;48.77;100428.91;4944780;28;20063;-84
2023/07/13 00:21:55;;;;;;;7.03;1.83;;;18.90;68.70;;;20.06;48.36;100434.91;4954625;28;20440;-85
2023/07/13 00:24:23;;;;;;;7.20;1.92;;;18.90;68.50;;;19.99;48.45;100427.06;4959526;28;20062;-84
2023/07/13 00:26:52;;;;;;;6.88;1.92;;;18.80;68.80;;;19.99;48.77;100435.19;4940958;29;20040;-84
2023/07/13 00:29:20;;;;;;;6.45;1.80;;;18.80;68.80;;;19.98;49.16;100430.03;4951552;28;20459;-83
2023/07/13 00:31:48;;;;;;;7.75;2.22;;;18.80;69.10;;;19.96;48.83;100432.19;4952083;28;20097;-84
2023/07/13 00:34:15;;;;;;;6.05;1.85;;;18.80;68.90;;;19.92;48.48;100440.06;4960563;28;20043;-84
2023/07/13 00:36:42;;;;;;;4.32;1.65;;;18.70;68.50;;;19.88;48.74;100433.59;4953496;28;20074;-84
2023/07/13 00:39:10;;;;;;;4.80;1.42;;;18.70;68.60;;;19.86;48.81;100435.75;4969715;28;20074;-84
2023/07/13 00:41:37;;;;;;;5.75;1.67;;;18.70;68.80;;;19.85;48.92;100433.31;4955082;28;20493;-84
2023/07/13 00:44:10;;;;;;;6.90;1.35;;;18.70;68.90;;;19.84;48.87;100435.22;4938106;28;20055;-84
2023/07/13 00:46:37;;;;;;;3.67;1.50;;;18.60;68.70;;;19.80;48.51;100437.66;4961314;28;20130;-84
2023/07/13 00:49:08;;;;;;;6.68;1.63;;;18.60;68.60;;;19.78;48.99;100439.03;4950516;28;20036;-84
2023/07/13 00:51:39;;;;;;;;;;;18.60;68.90;;;19.76;48.83;100436.59;4946855;29;20043;-84
2023/07/13 00:54:12;;;;;;;5.72;1.65;;;18.60;68.70;;;19.73;48.81;100430.91;4959306;28;19922;-84
2023/07/13 00:56:42;;;;;;;4.68;1.60;;;18.60;68.80;;;19.73;48.54;100439.03;4951125;29;20524;-84
2023/07/13 00:59:13;;;;;;;6.72;1.60;;;18.60;68.70;;;19.71;48.80;100431.16;4954876;28;20139;-84
2023/07/13 01:01:40;;;;;;;5.28;1.33;;;18.50;69.00;;;19.71;48.89;100425.75;4956906;28;20044;-84
2023/07/13 01:04:08;;;;;;;6.18;1.75;;;18.60;68.90;;;19.71;49.05;100433.06;4961055;28;20043;-83
2023/07/13 01:06:36;;;;;;;4.60;1.77;;;18.50;68.90;;;19.70;48.98;100436.84;4954541;28;20094;-83
2023/07/13 01:09:04;;;;;;;7.05;1.83;;;18.50;69.10;;;19.67;48.83;100432.00;4970418;28;20067;-83
2023/07/13 01:11:32;;;;;;;8.77;1.92;;;18.50;69.20;;;19.66;49.16;100433.88;4952633;28;20036;-84
2023/07/13 01:14:01;;;;;;;8.15;1.60;;;18.50;69.20;;;19.64;48.98;100427.94;4967390;28;20747;-83
2023/07/13 01:16:33;;;;;;;6.28;1.58;;;18.50;69.10;;;19.62;48.95;100430.13;4966893;28;20068;-84
2023/07/13 01:19:02;;;;;;;6.00;1.55;;;18.50;69.20;;;19.61;48.83;100433.06;4942186;28;20126;-84
2023/07/13 01:21:34;;;;;;;6.45;1.70;;;18.50;68.90;;;19.59;49.09;100427.91;4955222;28;20147;-84
2023/07/13 01:24:02;;;;;;;6.50;1.73;;;18.50;69.10;;;19.58;49.44;100428.19;4962688;28;20055;-84
2023/07/13 01:26:29;;;;;;;5.97;1.75;;;18.50;69.30;;;19.59;49.34;100427.09;4952174;28;20098;-84
2023/07/13 01:28:57;;;;;;;6.28;1.40;;;18.50;69.60;;;19.55;49.16;100414.09;4959118;28;20063;-85
2023/07/13 01:31:24;;;;;;;6.63;1.80;;;18.40;69.50;;;19.54;49.20;100420.59;4957831;28;20047;-85
2023/07/13 01:33:52;;;;;;;7.90;1.52;;;18.40;69.40;;;19.51;48.97;100421.16;4964394;28;20047;-84
2023/07/13 01:36:22;;;;;;;5.45;1.70;;;18.40;69.50;;;19.50;49.35;100424.13;4956191;28;20047;-84
2023/07/13 01:38:50;;;;;;;6.43;1.80;;;18.40;69.30;;;19.49;49.23;100431.44;4958714;28;20044;-84
2023/07/13 01:41:18;;;;;;;7.65;1.65;;;18.40;69.60;;;19.49;49.42;100425.22;4940464;28;20126;-84
2023/07/13 01:43:47;;;;;;;8.85;1.65;;;18.40;69.60;;;19.48;49.28;100423.59;4941769;28;20488;-83
2023/07/13 01:46:14;;;;;;;4.15;1.48;;;18.40;69.50;;;19.47;49.37;100425.50;4954398;29;20047;-84
2023/07/13 01:48:41;;;;;;;6.65;1.48;;;18.40;69.30;;;19.46;49.13;100431.16;4954962;28;20131;-83
2023/07/13 01:51:09;;;;;;;7.43;1.88;;;18.40;69.30;;;19.45;49.38;100430.34;4959086;28;20775;-83
2023/07/13 01:53:36;;;;;;;5.57;1.50;;;18.40;69.70;;;19.42;49.39;100443.59;4969448;28;20039;-83
2023/07/13 01:56:06;;;;;;;6.68;1.63;;;18.30;69.90;;;19.40;49.78;100441.16;4950315;28;20047;-83
2023/07/13 01:58:33;;;;;;;6.53;1.75;;;18.30;70.10;;;19.38;49.65;100443.34;4949789;28;20091;-84
2023/07/13 02:01:00;;;;;;;9.32;1.88;;;18.30;70.10;;;19.36;50.09;100447.38;4959758;28;20050;-84
2023/07/13 02:03:28;;;;;;;7.15;2.03;;;18.20;70.50;;;19.35;49.82;100443.06;4953434;29;20047;-84
2023/07/13 02:05:59;;;;;;;7.05;2.00;;;18.20;70.50;;;19.30;50.03;100444.69;4957313;28;20404;-84
2023/07/13 02:08:26;;;;;;;5.93;1.65;;;18.20;70.70;;;19.29;50.11;100447.66;4954961;28;20077;-84
2023/07/13 02:10:54;;;;;;;5.60;1.50;;;18.10;70.80;;;19.26;50.25;100448.19;4961013;28;20148;-85
2023/07/13 02:13:22;;;;;;;5.05;1.58;;;18.10;70.90;;;19.25;50.01;100441.16;4953089;29;20047;-83
2023/07/13 02:15:52;;;;;;;6.85;2.25;;;18.10;70.90;;;19.22;49.73;100453.31;4938069;29;20051;-84
2023/07/13 02:18:19;;;;;;;6.78;1.70;;;18.00;70.70;;;19.18;50.28;100446.84;4956154;28;20055;-84
2023/07/13 02:20:46;;;;;;;6.60;1.73;;;18.00;70.90;;;19.15;50.29;100444.69;4949270;28;20045;-83
2023/07/13 02:23:14;;;;;;;3.38;1.35;;;17.90;71.00;;;19.14;49.97;100444.94;4973480;28;20212;-84
2023/07/13 02:25:41;;;;;;;6.40;1.63;;;17.90;71.00;;;19.11;50.37;100440.88;4965195;28;20138;-84
2023/07/13 02:28:09;;;;;;;6.28;1.45;;;17.90;71.20;;;19.11;50.69;100450.88;4967682;28;20043;-84
2023/07/13 02:30:38;;;;;;;5.97;1.50;;;17.90;71.10;;;19.10;50.58;100443.84;4947864;28;20044;-84
2023/07/13 02:33:06;;;;;;;4.57;1.58;;;17.90;71.20;;;19.10;50.55;100443.84;4954589;28;20034;-84
2023/07/13 02:35:33;;;;;;;7.07;2.25;;;18.00;71.10;;;19.12;50.29;100449.81;4943156;28;20107;-84
2023/07/13 02:38:01;;;;;;;13.00;1.98;;;18.00;71.10;;;19.10;50.39;100439.25;4958292;28;20042;-84
2023/07/13 02:40:28;;;;;;;7.18;1.73;;;18.00;70.70;;;19.11;50.36;100440.06;4954413;28;20040;-83
2023/07/13 02:42:55;;;;;;;4.70;1.42;;;18.00;70.80;;;19.10;50.09;100438.44;4956972;28;20479;-85
2023/07/13 02:45:22;;;;;;;8.65;1.95;;;18.00;70.50;;;19.06;50.18;100440.88;4965315;28;20051;-84
2023/07/13 02:47:51;;;;;;;6.47;1.70;;;18.00;70.90;;;19.02;50.33;100437.88;4953038;29;20067;-83
2023/07/13 02:50:19;;;;;;;7.28;1.85;;;17.90;71.00;;;19.03;50.54;100444.09;4943244;29;20063;-84
2023/07/13 02:52:46;;;;;;;5.05;1.48;;;17.90;71.00;;;18.99;50.81;100446.56;4949137;28;20035;-84
2023/07/13 02:55:13;;;;;;;5.70;1.60;;;17.90;71.50;;;18.96;50.57;100440.84;4951062;29;20054;-84
2023/07/13 02:57:42;;;;;;;12.98;1.77;;;17.80;71.50;;;18.92;50.94;100448.69;4966507;28;20130;-83
2023/07/13 03:00:10;;;;;;;7.25;1.73;;;17.80;71.70;;;18.90;50.83;100450.03;4955350;28;20539;-84
2023/07/13 03:02:38;;;;;;;7.28;1.60;;;17.80;71.90;;;18.88;50.88;100447.59;4948934;28;20584;-83
2023/07/13 03:05:12;;;;;;;4.32;1.38;;;17.70;72.00;;;18.86;51.21;100454.34;4955871;29;20053;-84
2023/07/13 03:07:40;;;;;;;6.88;1.98;;;17.70;72.10;;;18.85;51.08;100463.53;4956226;28;20090;-84
2023/07/13 03:10:09;;;;;;;6.68;1.70;;;17.70;72.30;;;18.82;51.38;100454.06;4945588;28;20063;-86
2023/07/13 03:12:43;;;;;;;7.15;1.60;;;17.60;72.60;;;18.78;51.38;100463.78;4972126;28;20389;-83
2023/07/13 03:15:19;;;;;;;7.53;2.35;;;17.60;72.60;;;18.74;51.65;100458.13;4956593;29;20035;-83
2023/07/13 03:17:48;;;;;;;7.22;1.80;;;17.60;72.80;;;18.77;51.70;100462.16;4952556;28;20469;-84
2023/07/13 03:20:17;;;;;;;6.82;1.60;;;17.60;72.80;;;18.74;51.66;100449.19;4945517;29;20055;-84
2023/07/13 03:22:45;;;;;;;8.68;2.35;;;17.70;72.80;;;18.72;51.58;100462.94;4956291;28;20571;-84
2023/07/13 03:25:13;;;;;;;7.47;1.90;;;17.60;72.80;;;18.71;51.87;100461.34;4971640;28;20051;-84
2023/07/13 03:27:40;;;;;;;5.90;1.92;;;17.60;72.90;;;18.70;51.88;100458.91;4948119;28;20048;-84
2023/07/13 03:30:11;;;;;;;7.90;1.50;;;17.60;73.10;;;18.66;52.12;100460.47;4948153;28;20070;-84
2023/07/13 03:32:38;;;;;;;5.07;1.60;;;17.60;73.20;;;18.66;52.07;100465.88;4947679;28;20587;-84
2023/07/13 03:35:06;;;;;;;7.50;1.85;;;17.60;73.30;;;18.68;51.97;100458.31;4945764;29;20445;-84
2023/07/13 03:37:42;;;;;;;8.00;1.90;;;17.60;73.30;;;18.67;52.09;100457.50;4953435;29;20039;-84
2023/07/13 03:40:14;;;;;;;8.18;1.85;;;17.60;73.20;;;18.69;51.94;100468.06;4975986;28;20389;-84
2023/07/13 03:42:44;;;;;;;7.95;1.73;;;17.60;73.10;;;18.65;52.23;100475.88;4965113;28;20073;-84
2023/07/13 03:45:12;;;;;;;9.55;1.92;;;17.60;73.30;;;18.62;52.50;100475.59;4955407;29;20524;-84
2023/07/13 03:47:39;;;;;;;10.68;2.33;;;17.60;73.50;;;18.61;52.61;100476.66;4954669;28;20063;-84
2023/07/13 03:50:08;;;;;;;8.18;2.00;;;17.60;73.60;;;18.61;52.67;100484.78;4954730;28;20039;-84
2023/07/13 03:52:38;;;;;;;5.70;1.60;;;17.60;73.60;;;18.63;52.43;100480.72;4948176;28;20039;-84
2023/07/13 03:55:06;;;;;;;6.60;1.80;;;17.60;73.70;;;18.65;52.56;100483.97;4954734;28;20079;-84
2023/07/13 03:57:34;;;;;;;5.00;1.80;;;17.60;74.00;;;18.64;52.91;100478.81;4954077;28;20070;-84
2023/07/13 04:00:02;;;;;;;8.35;2.00;;;17.60;74.00;;;18.64;52.88;100478.81;4969995;28;20039;-83
2023/07/13 04:02:31;;;;;;;6.60;1.95;;;17.70;74.30;;;18.59;52.96;100481.50;4968163;28;20042;-83
2023/07/13 04:04:59;;;;;;;6.88;1.70;;;17.60;73.90;;;18.63;53.23;100490.72;4957017;28;20058;-84
2023/07/13 04:07:26;;;;;;;5.00;1.80;;;17.70;74.30;;;18.63;53.17;100494.22;4947518;28;20162;-84
2023/07/13 04:09:55;;;;;;;9.30;1.98;;;17.70;74.10;;;18.67;53.27;100497.22;4972119;28;20038;-84
2023/07/13 04:12:22;;;;;;;14.00;1.90;;;17.70;74.10;;;18.65;53.39;100499.38;4963793;28;20423;-84
2023/07/13 04:14:50;;;;;;;8.20;1.90;;;17.70;74.30;;;18.61;53.34;100501.78;4955542;28;20533;-84
2023/07/13 04:17:17;;;;;;;8.75;2.40;;;17.70;74.50;;;18.58;53.54;100505.00;4956175;28;20078;-84
2023/07/13 04:19:44;;;;;;;6.82;1.80;;;17.70;74.70;;;18.61;53.53;100498.28;4958014;28;20039;-84
2023/07/13 04:22:11;;;;;;;7.90;1.90;;;17.70;74.50;;;18.47;53.67;100500.63;4963325;28;20043;-84
2023/07/13 04:24:39;;;;;;;8.48;2.42;;;17.60;74.50;;;18.48;53.97;100503.06;4955438;29;20732;-84
2023/07/13 04:27:08;;;;;;;9.38;1.80;;;17.60;74.90;;;18.46;54.06;100504.41;4951297;28;20126;-84
2023/07/13 04:29:35;;;;;;;8.35;1.92;;;17.60;75.10;;;18.51;54.18;100512.56;4967293;28;20509;-84
2023/07/13 04:32:02;;;;;;;8.90;2.00;;;17.60;75.30;;;18.52;54.31;100509.56;4948118;28;20142;-84
2023/07/13 04:34:30;;;;;;;6.97;1.60;;;17.70;75.40;;;18.56;54.14;100509.06;4955159;28;20546;-84
2023/07/13 04:36:57;;;;;;;5.18;1.90;;;17.70;75.30;;;18.62;54.42;100514.22;4955183;28;20106;-84
2023/07/13 04:39:24;;;;;;;8.48;2.05;;;17.80;75.40;;;18.58;54.65;100520.41;4958147;28;20122;-84
2023/07/13 04:41:52;;;;;;;7.15;2.10;;;17.80;75.40;;;18.55;54.57;100507.44;4942118;29;20047;-84
2023/07/13 04:44:20;;;;;;;8.73;2.03;;;17.80;75.40;;;18.59;54.99;100505.81;4950267;28;20511;-84
2023/07/13 04:46:47;;;;;;;9.15;1.85;;;17.80;75.80;;;18.58;54.85;100512.31;4953135;29;20126;-84
2023/07/13 04:49:15;;;;;;;8.88;2.13;;;17.80;75.90;;;18.59;54.93;100512.03;4960526;28;20122;-84
2023/07/13 04:51:42;;;;;;;6.75;1.67;;;17.90;75.80;;;18.69;54.99;100508.59;4956984;28;20059;-84
2023/07/13 04:54:09;;;;;;;7.05;2.08;;;17.90;76.10;;;18.65;55.44;100518.28;4955882;28;20062;-83
2023/07/13 04:56:36;;;;;;;8.30;1.90;;;18.00;76.00;;;18.66;55.08;100514.50;4931446;29;20138;-84
2023/07/13 04:59:04;;;;;;;8.20;1.73;;;18.00;75.60;;;18.69;55.69;100522.09;4961695;28;20066;-84
2023/07/13 05:01:32;;;;;;;7.10;1.90;;;18.00;76.40;;;18.70;55.63;100523.75;4961625;28;20117;-83
2023/07/13 05:03:59;;;;;;;8.68;1.77;;;18.10;76.30;;;18.74;55.50;100516.75;4954679;28;20066;-84
2023/07/13 05:06:27;;;;;;;8.32;2.13;;;18.10;76.20;;;18.74;55.64;100530.25;4964320;28;20050;-84
2023/07/13 05:08:54;;;;;;;7.10;2.03;;;18.10;76.20;;;18.71;56.10;100522.66;4958605;28;20071;-84
2023/07/13 05:11:22;;;;;;;9.93;2.15;;;18.10;76.50;;;18.73;56.14;100534.81;4960644;28;20059;-84
2023/07/13 05:13:49;;;;;;;10.18;2.00;;;18.20;76.60;;;18.75;56.27;100519.16;4946355;28;20050;-84
2023/07/13 05:16:16;;;;;;;9.88;2.28;;;18.20;76.70;;;18.73;55.97;100525.91;4954558;28;20141;-84
2023/07/13 05:18:45;;;;;;;9.57;1.83;;;18.20;76.20;;;18.80;56.16;100528.38;4962664;28;20043;-84
2023/07/13 05:21:12;;;;;;;7.93;2.03;;;18.20;76.40;;;18.79;56.48;100530.28;4955760;28;20124;-84
2023/07/13 05:23:41;;;;;;;7.43;2.05;;;18.20;76.70;;;18.78;56.41;100537.53;4947032;29;20540;-84
2023/07/13 05:26:08;;;;;;;8.52;1.95;;;18.20;76.60;;;18.82;56.20;100540.53;4956142;28;20739;-84
2023/07/13 05:28:36;;;;;;;10.63;2.28;;;18.30;76.20;;;18.88;56.46;100542.19;4953503;28;20420;-84
2023/07/13 05:31:03;;;;;;;7.35;2.10;;;18.40;76.60;;;18.93;56.03;100535.97;4947910;28;20043;-84
2023/07/13 05:33:30;;;;;;;11.02;2.33;;;18.40;76.40;;;18.97;56.04;100537.88;4940112;28;20497;-84
2023/07/13 05:36:00;;;;;;;7.55;2.05;;;18.40;76.20;;;18.96;56.39;100541.69;4955490;28;20073;-84
2023/07/13 05:38:28;;;;;;;8.88;2.35;;;18.50;76.30;;;19.09;55.96;100545.78;4957265;28;20047;-84
2023/07/13 05:40:57;;;;;;;10.73;2.90;;;18.70;76.00;;;19.31;55.72;100550.97;4957570;28;20043;-83
2023/07/13 05:43:25;;;;;;;8.00;1.98;;;18.90;75.60;;;19.52;56.00;100541.81;4971976;28;20043;-84
2023/07/13 05:45:54;;;;;;;10.82;2.85;;;19.20;75.30;;;19.53;55.37;100540.75;4948377;29;20077;-84
2023/07/13 05:48:21;;;;;;;12.70;2.63;;;19.30;74.20;;;19.60;55.54;100545.91;4952663;28;20047;-83
2023/07/13 05:50:49;;;;;;;11.93;2.83;;;19.40;74.20;;;19.63;55.03;100556.19;4960254;28;20070;-83
2023/07/13 05:53:17;;;;;;;10.73;2.67;;;19.40;74.10;;;19.67;54.93;100554.59;4961767;28;20492;-83
2023/07/13 05:55:47;;;;;;;9.07;2.75;;;19.40;74.10;;;19.68;55.11;100553.50;4950459;28;20103;-83
2023/07/13 05:58:15;;;;;;;10.57;2.47;;;19.40;74.10;;;19.66;54.99;100561.06;4939657;29;20040;-83
2023/07/13 06:00:42;;;;;;;11.43;2.13;;;19.40;74.20;;;19.74;55.18;100559.72;4964378;28;20050;-84
2023/07/13 06:03:10;;;;;;;8.23;2.05;;;19.50;74.30;;;19.93;55.10;100558.09;4956260;28;20129;-83
2023/07/13 06:05:39;;;;;;;9.75;2.75;;;19.70;74.20;;;20.04;54.22;100561.63;4949532;28;20122;-84
2023/07/13 06:08:07;;;;;;;9.50;2.33;;;19.80;72.80;;;20.17;55.25;100565.69;4955573;28;20488;-84
2023/07/13 06:10:37;;;;;;;11.80;2.53;;;20.00;73.90;;;20.21;54.23;100570.28;4953103;28;20134;-83
2023/07/13 06:13:04;;;;;;;8.90;2.78;;;20.10;72.70;;;20.27;54.90;100565.66;4947497;28;20577;-84
2023/07/13 06:15:31;;;;;;;12.27;2.67;;;20.10;72.90;;;20.39;54.49;100574.28;4960024;28;20039;-84
2023/07/13 06:17:59;;;;;;;11.80;2.58;;;20.30;72.60;;;20.56;53.79;100558.59;4949682;28;20071;-84
2023/07/13 06:20:26;;;;;;;10.55;2.70;;;20.50;71.90;;;20.66;53.45;100567.78;4953633;29;20046;-84
2023/07/13 06:22:53;;;;;;;11.77;2.92;;;20.70;71.50;;;20.75;53.61;100575.06;4948221;28;20078;-84
2023/07/13 06:25:21;;;;;;;17.23;2.72;;;20.80;70.90;;;20.87;53.26;100573.94;4959904;28;20051;-84
2023/07/13 06:27:49;;;;;;;11.43;3.10;;;20.90;70.30;;;20.85;53.47;100576.94;4951127;28;20058;-84
2023/07/13 06:30:16;;;;;;;13.20;3.28;;;20.90;70.40;;;20.99;54.01;100575.25;4938362;29;20044;-84
2023/07/13 06:32:44;;;;;;;12.02;3.00;;;21.10;71.50;;;21.03;53.29;100581.75;4945165;29;20056;-84
2023/07/13 06:35:13;;;;;;;9.25;2.65;;;21.10;70.40;;;21.06;53.65;100574.94;4958863;28;20094;-84
2023/07/13 06:37:40;;;;;;;13.60;3.35;;;21.20;70.40;;;21.08;53.04;100581.72;4952994;28;20396;-84
2023/07/13 06:40:09;;;;;;;16.73;2.83;;;21.20;69.40;;;21.14;52.60;100581.69;4957641;28;20070;-84
2023/07/13 06:42:38;;;;;;;10.60;2.67;;;21.20;69.30;;;21.08;52.70;100589.84;4955228;28;20134;-85
2023/07/13 06:45:08;;;;;;;13.60;3.22;;;21.30;69.60;;;21.16;52.12;100585.72;4963514;28;20120;-85
2023/07/13 06:47:36;;;;;;;8.17;2.97;;;21.30;68.50;;;21.22;52.76;100584.59;4956309;28;20118;-85
2023/07/13 06:50:03;;;;;;;16.00;3.80;;;21.40;69.10;;;21.29;52.53;100579.69;4955588;28;20791;-84
2023/07/13 06:52:31;;;;;;;10.98;3.67;;;21.50;69.30;;;21.28;52.64;100597.06;4965217;28;20035;-84
2023/07/13 06:54:58;;;;;;;13.35;3.40;;;21.40;68.70;;;21.31;52.37;100584.88;4951422;28;20040;-84
2023/07/13 06:57:26;;;;;;;12.73;3.65;;;21.50;68.50;;;21.42;52.23;100591.84;4965529;28;20047;-84
2023/07/13 06:59:53;;;;;;;9.25;3.60;;;21.50;68.60;;;21.49;52.74;100588.84;4949882;28;20345;-84
2023/07/13 07:02:22;;;;;;;8.38;2.90;;;21.60;69.30;;;21.46;52.38;100595.63;4949725;28;20039;-84
2023/07/13 07:04:49;;;;;;;13.57;3.28;;;21.60;68.90;;;21.50;52.78;100598.59;4959381;28;20051;-84
2023/07/13 07:07:17;;;;;;;11.85;2.78;;;21.70;69.20;;;21.58;52.84;100601.53;4969323;28;20043;-84
2023/07/13 07:09:44;;;;;;;12.05;3.22;;;21.80;69.10;;;21.68;53.27;100608.00;4946201;28;20054;-84
2023/07/13 07:12:11;;;;;;;11.38;3.15;;;21.90;69.50;;;21.75;52.98;100597.63;4950398;28;20491;-84
2023/07/13 07:14:39;;;;;;;13.50;3.35;;;22.00;69.00;;;21.89;51.96;100603.22;4958405;28;20047;-84
2023/07/13 07:17:06;;;;;;;13.38;3.40;;;22.10;68.40;;;21.96;52.55;100604.53;4950296;29;20063;-84
2023/07/13 07:19:36;;;;;;;10.45;2.92;;;22.20;68.40;;;21.97;52.36;100608.88;4959143;28;20420;-84
2023/07/13 07:22:04;;;;;;;20.75;3.25;;;22.20;68.10;;;21.90;52.19;100600.22;4956800;28;20043;-84
2023/07/13 07:24:31;;;;;;;9.65;2.90;;;22.10;68.40;;;21.87;52.73;100600.00;4959777;28;20059;-84
2023/07/13 07:26:58;;;;;;;8.98;3.53;;;22.00;69.10;;;21.84;51.50;100604.88;4963588;28;20555;-84
2023/07/13 07:29:27;;;;;;;11.48;2.90;;;22.00;67.80;;;21.83;51.91;100610.59;4961977;28;20053;-85
2023/07/13 07:31:55;;;;;;;12.27;3.08;;;22.00;68.50;;;21.79;51.80;100613.06;4957839;28;20062;-84
2023/07/13 07:34:22;;;;;;;9.00;2.60;;;22.00;67.90;;;21.85;52.43;100609.22;4967506;28;20042;-85
2023/07/13 07:36:50;;;;;;;9.18;2.80;;;22.00;68.60;;;21.77;52.39;100611.75;4957342;28;20564;-85
2023/07/13 07:39:18;;;;;;;10.02;2.80;;;21.90;68.60;;;21.82;52.58;100607.09;4962335;28;20035;-85
2023/07/13 07:41:45;;;;;;;13.00;3.40;;;22.00;68.80;;;21.91;52.48;100612.72;4949684;28;20555;-85
2023/07/13 07:44:12;;;;;;;17.83;3.45;;;22.00;68.90;;;22.10;52.39;100612.81;4952250;28;20039;-85
2023/07/13 07:46:41;;;;;;;8.57;3.17;;;22.20;68.60;;;22.06;52.24;100612.59;4961123;28;20101;-85
2023/07/13 07:49:08;;;;;;;14.75;3.97;;;22.20;68.70;;;21.98;51.72;100615.13;4958179;28;20063;-84
2023/07/13 07:51:35;;;;;;;10.85;3.17;;;22.10;67.90;;;21.85;52.38;100619.28;4949186;28;20507;-84
2023/07/13 07:54:05;;;;;;;11.02;3.47;;;22.00;68.30;;;21.59;51.73;100616.72;4962667;28;20090;-85
2023/07/13 07:56:33;;;;;;;13.85;3.25;;;21.60;68.10;;;21.63;52.61;100624.31;4958713;28;20134;-84
2023/07/13 07:59:00;;;;;;;10.82;3.47;;;21.60;69.10;;;21.53;52.65;100617.06;4953309;28;20102;-84
2023/07/13 08:01:27;;;;;;;12.10;3.50;;;21.50;69.70;;;21.49;53.03;100624.94;4959007;28;20058;-84
2023/07/13 08:03:55;;;;;;;12.45;3.53;;;21.50;69.90;;;21.71;53.65;100610.94;4950220;28;20050;-84
2023/07/13 08:06:22;;;;;;;11.95;3.60;;;21.70;70.60;;;21.96;53.55;100617.28;4953361;28;20047;-84
2023/07/13 08:08:50;;;;;;;13.73;3.33;;;22.00;70.10;;;22.12;52.77;100621.56;4954299;28;20485;-84
2023/07/13 08:11:19;;;;;;;6.78;2.75;;;22.20;69.00;;;22.11;52.58;100625.38;4952154;28;20129;-85
2023/07/13 08:13:46;;;;;;;15.15;3.58;;;22.30;68.70;;;21.96;52.03;100626.28;4956936;28;20051;-84
2023/07/13 08:16:13;;;;;;;10.63;3.00;;;22.10;68.10;;;21.92;52.07;100627.13;4947575;29;20044;-84
2023/07/13 08:18:40;;;;;;;12.98;3.55;;;22.10;68.10;;;22.02;52.87;100618.88;4951931;28;20050;-83
2023/07/13 08:21:09;;;;;;;10.48;3.13;;;22.10;69.10;;;22.15;52.27;100614.72;4943640;29;20493;-83
2023/07/13 08:23:37;;;;;;;9.27;2.92;;;22.30;68.50;;;22.07;52.16;100622.38;4944134;28;20496;-83
2023/07/13 08:26:05;;;;;;;9.85;3.05;;;22.20;68.10;;;22.05;51.88;100613.69;4944889;28;20127;-83
2023/07/13 08:28:34;;;;;;;16.83;3.65;;;22.20;67.70;;;21.97;51.01;100618.94;4950049;28;20400;-84
2023/07/13 08:31:03;;;;;;;11.82;3.30;;;22.20;67.00;;;21.93;51.87;100620.59;4948018;29;20102;-84
2023/07/13 08:33:31;;;;;;;11.05;2.90;;;22.00;67.90;;;22.01;51.36;100623.50;4950518;28;20548;-84
2023/07/13 08:35:58;;;;;;;9.48;3.00;;;22.10;67.80;;;22.12;52.81;100615.31;4955624;28;20040;-83
2023/07/13 08:38:25;;;;;;;9.40;2.92;;;22.20;69.50;;;22.29;52.62;100612.97;4938637;28;20048;-84
2023/07/13 08:40:55;;;;;;;12.65;3.22;;;22.30;69.00;;;22.36;51.58;100611.56;4942862;29;22279;-84
2023/07/13 08:43:29;;;;;;;9.00;3.30;;;22.40;68.10;;;22.33;52.24;100622.19;4944447;28;20046;-84
2023/07/13 08:46:09;;;;;;;10.85;3.35;;;22.40;68.80;;;22.23;51.19;100606.78;4946214;28;20586;-85
2023/07/13 08:48:42;;;;;;;12.35;3.20;;;22.30;67.40;;;22.16;51.55;100603.59;4953946;28;20074;-85
2023/07/13 08:51:27;;;;;;;8.10;3.08;;;22.20;68.10;;;22.16;53.40;100613.66;4952683;29;20146;-85
2023/07/13 08:54:00;;;;;;;15.10;3.05;;;22.20;70.10;;;22.10;52.34;100612.81;4945975;28;20134;-85
2023/07/13 08:56:31;;;;;;;10.00;3.17;;;22.20;68.90;;;22.06;52.74;100618.03;4954376;28;20063;-85
2023/07/13 08:59:06;;;;;;;10.70;3.67;;;22.10;69.80;;;21.99;51.80;100608.56;4945456;28;20449;-84
2023/07/13 09:01:55;;;;;;;15.75;3.10;;;22.10;68.10;;;21.89;52.11;100614.09;4952539;29;20046;-84
2023/07/13 09:07:17;;;;;;;11.50;2.97;;;21.70;69.30;;;21.84;52.95;100610.31;4969347;23;20048;-84
2023/07/13 09:09:59;;;;;;;11.80;3.40;;;21.80;70.00;;;21.87;53.07;100613.56;4968804;23;20055;-84
2023/07/13 09:12:37;;;;;;;15.07;3.05;;;21.80;69.90;;;21.83;52.23;100613.31;4954363;28;20051;-84
2023/07/13 09:15:06;;;;;;;8.40;2.90;;;21.90;69.30;;;21.85;53.09;100611.13;4946863;29;20043;-84
2023/07/13 09:17:42;;;;;;;11.27;2.90;;;21.90;69.70;;;21.84;53.00;100609.50;4953411;28;20035;-84
2023/07/13 09:20:24;;;;;;;9.65;3.05;;;21.90;69.50;;;21.96;53.27;100609.97;4945486;28;20065;-84
2023/07/13 09:22:53;;;;;;;11.77;3.05;;;22.00;69.90;;;22.07;53.74;100616.94;4952823;29;20484;-84
2023/07/13 09:25:30;;;;;;;11.75;3.22;;;22.20;70.30;;;22.10;53.58;100613.63;4952575;28;20047;-83
2023/07/13 09:28:03;;;;;;;12.60;2.80;;;22.30;70.10;;;22.17;52.27;100612.53;4934973;29;20043;-83
2023/07/13 09:30:39;;;;;;;12.50;2.83;;;22.30;68.70;;;22.09;52.77;100606.59;4962494;28;20047;-83
2023/07/13 09:33:08;;;;;;;8.80;2.70;;;22.20;68.70;;;22.18;53.08;100608.72;4933997;29;20071;-83
2023/07/13 09:35:36;;;;;;;10.85;3.05;;;22.30;69.60;;;22.22;54.60;100623.38;4942096;29;20050;-83
2023/07/13 09:38:14;;;;;;;9.65;3.10;;;22.30;71.50;;;22.29;53.37;100619.22;4952573;28;20131;-83
2023/07/13 09:41:12;;;;;;;16.05;3.00;;;22.40;70.00;;;22.27;53.21;100609.75;4952421;29;20051;-83
2023/07/13 09:43:39;;;;;;;9.93;2.95;;;22.40;69.90;;;22.18;52.34;100614.16;4951069;29;20050;-83
2023/07/13 09:46:22;;;;;;;8.18;2.72;;;22.20;68.70;;;22.22;53.63;100621.47;4958454;29;20071;-82
2023/07/13 09:48:51;;;;;;;10.68;3.42;;;22.30;70.30;;;22.12;52.46;100621.56;4974387;28;20483;-82
2023/07/13 09:51:18;;;;;;;12.77;2.90;;;22.20;68.70;;;22.20;54.02;100614.69;4987775;28;20515;-83
2023/07/13 09:53:45;;;;;;;8.60;3.05;;;22.30;70.50;;;22.22;52.98;100613.31;4965252;28;20055;-83
2023/07/13 09:56:23;;;;;;;9.15;3.47;;;22.30;69.30;;;22.13;52.69;100625.06;4962314;28;20131;-83
2023/07/13 09:58:51;;;;;;;8.57;3.10;;;22.20;69.10;;;22.01;52.82;100614.53;4953752;28;20102;-83
2023/07/13 10:01:34;;;;;;;10.50;3.00;;;22.10;69.10;;;22.01;52.48;100623.50;4953984;28;20043;-83
2023/07/13 10:04:10;;;;;;;11.98;3.00;;;22.10;68.90;;;22.07;53.66;100625.09;4952146;28;20129;-83
2023/07/13 10:06:39;;;;;;;9.68;3.08;;;22.20;70.20;;;22.20;53.78;100620.91;4955758;28;20559;-83
2023/07/13 10:09:09;;;;;;;10.25;3.72;;;22.30;70.40;;;22.41;55.73;100629.72;4956019;28;20401;-82
2023/07/13 10:11:38;;;;;;;10.57;3.30;;;22.50;72.10;;;22.37;53.02;100625.94;4964896;28;20146;-84
2023/07/13 10:14:15;;;;;;;17.95;4.00;;;22.50;69.30;;;22.43;53.22;100630.22;4972036;28;20070;-83
2023/07/13 10:16:45;;;;;;;9.55;2.72;;;22.60;69.50;;;22.41;52.58;100635.16;4955317;28;20078;-84
2023/07/13 10:19:22;;;;;;;10.07;3.13;;;22.50;68.50;;;22.38;52.53;100627.56;4956706;28;20043;-83
2023/07/13 10:21:55;;;;;;;11.23;3.50;;;22.50;68.90;;;22.33;52.31;100636.56;4954134;28;20058;-84